createdAt,value
2022-12-22T00:01:14.533Z,100247.66
2022-12-22T00:03:59.503Z,100250.19
2022-12-22T00:06:44.626Z,100242.19
2022-12-22T00:09:29.498Z,100246.88
2022-12-22T00:12:14.839Z,100254.50
2022-12-22T00:15:00.781Z,100247.00
2022-12-22T00:17:47.186Z,100255.13
2022-12-22T00:20:38.532Z,100251.31
2022-12-22T00:23:23.956Z,100258.53
2022-12-22T00:26:08.933Z,100245.00
2022-12-22T00:28:54.845Z,100240.06
2022-12-22T00:31:41.768Z,100234.41
2022-12-22T00:34:35.199Z,100220.19
2022-12-22T00:37:20.056Z,100218.91
2022-12-22T00:40:05.495Z,100210.28
2022-12-22T00:42:50.717Z,100211.56
2022-12-22T00:45:35.591Z,100200.53
2022-12-22T00:48:21.180Z,100194.13
2022-12-22T00:51:06.095Z,100199.66
2022-12-22T00:53:50.903Z,100197.38
2022-12-22T00:56:36.237Z,100189.34
2022-12-22T00:59:21.688Z,100191.16
2022-12-22T01:02:06.674Z,100196.28
2022-12-22T01:04:51.907Z,100191.22
2022-12-22T01:07:40.763Z,100190.03
2022-12-22T01:10:31.645Z,100194.97
2022-12-22T01:13:17.031Z,100189.00
2022-12-22T01:16:02.043Z,100189.59
2022-12-22T01:18:47.084Z,100187.78
2022-12-22T01:21:39.537Z,100196.75
2022-12-22T01:24:30.925Z,100192.44
2022-12-22T01:27:16.450Z,100191.41
2022-12-22T01:30:02.311Z,100183.06
2022-12-22T01:32:47.550Z,100181.63
2022-12-22T01:35:42.612Z,100177.75
2022-12-22T01:38:27.910Z,100172.56
2022-12-22T01:41:14.221Z,100178.75
2022-12-22T01:43:59.058Z,100180.59
2022-12-22T01:46:59.358Z,100174.47
2022-12-22T01:50:10.561Z,100173.84
2022-12-22T01:52:55.209Z,100166.84
2022-12-22T01:55:43.015Z,100166.25
2022-12-22T01:58:38.830Z,100159.91
2022-12-22T02:01:23.865Z,100151.28
2022-12-22T02:04:08.910Z,100146.94
2022-12-22T02:07:00.802Z,100164.38
2022-12-22T02:10:16.696Z,100161.53
2022-12-22T02:13:26.543Z,100157.88
2022-12-22T02:16:31.889Z,100158.88
2022-12-22T02:19:26.216Z,100152.38
2022-12-22T02:22:29.042Z,100151.38
2022-12-22T02:25:22.615Z,100146.25
2022-12-22T02:28:09.987Z,100151.13
2022-12-22T02:30:55.838Z,100149.50
2022-12-22T02:33:41.504Z,100140.69
2022-12-22T02:36:39.945Z,100141.34
2022-12-22T02:39:38.467Z,100135.38
2022-12-22T02:42:35.581Z,100123.94
2022-12-22T02:45:45.101Z,100121.13
2022-12-22T02:48:35.525Z,100125.44
2022-12-22T02:51:27.463Z,100127.09
2022-12-22T02:54:14.495Z,100131.38
2022-12-22T02:57:00.445Z,100129.34
2022-12-22T02:59:45.520Z,100116.69
2022-12-22T03:02:32.347Z,100117.69
2022-12-22T03:05:17.776Z,100119.13
2022-12-22T03:08:07.982Z,100114.34
2022-12-22T03:10:55.179Z,100107.19
2022-12-22T03:13:40.570Z,100102.53
2022-12-22T03:16:25.487Z,100109.66
2022-12-22T03:19:11.643Z,100091.25
2022-12-22T03:21:57.513Z,100095.16
2022-12-22T03:24:42.277Z,100086.78
2022-12-22T03:27:08.954Z,100085.97
2022-12-22T03:29:35.526Z,100085.50
2022-12-22T03:32:02.003Z,100087.75
2022-12-22T03:34:28.469Z,100102.31
2022-12-22T03:36:54.873Z,100107.00
2022-12-22T03:39:21.484Z,100108.66
2022-12-22T03:42:06.595Z,100107.19
2022-12-22T03:44:51.381Z,100100.69
2022-12-22T03:47:17.864Z,100092.06
2022-12-22T03:49:44.294Z,100097.16
2022-12-22T03:52:10.717Z,100094.06
2022-12-22T03:54:37.208Z,100096.97
2022-12-22T03:57:03.933Z,100101.44
2022-12-22T03:59:31.436Z,100105.94
2022-12-22T04:01:57.987Z,100101.25
2022-12-22T04:04:26.489Z,100109.66
2022-12-22T04:06:54.355Z,100119.47
2022-12-22T04:09:22.415Z,100119.47
2022-12-22T04:12:07.356Z,100123.78
2022-12-22T04:14:34.981Z,100130.50
2022-12-22T04:17:05.480Z,100120.91
2022-12-22T04:19:32.344Z,100127.22
2022-12-22T04:21:59.863Z,100115.56
2022-12-22T04:24:26.349Z,100125.56
2022-12-22T04:26:52.940Z,100122.09
2022-12-22T04:29:19.393Z,100123.56
2022-12-22T04:31:45.935Z,100120.69
2022-12-22T04:34:12.395Z,100127.84
2022-12-22T04:36:38.891Z,100129.50
2022-12-22T04:39:05.343Z,100133.78
2022-12-22T04:41:31.847Z,100121.97
2022-12-22T04:43:58.363Z,100116.56
2022-12-22T04:46:24.921Z,100133.56
2022-12-22T04:48:56.156Z,100126.59
2022-12-22T04:51:25.963Z,100132.38
2022-12-22T04:53:52.393Z,100126.34
2022-12-22T04:56:18.909Z,100125.34
2022-12-22T04:58:45.360Z,100128.81
2022-12-22T05:01:17.316Z,100129.63
2022-12-22T05:03:43.952Z,100139.06
2022-12-22T05:06:11.018Z,100144.38
2022-12-22T05:08:37.956Z,100147.44
2022-12-22T05:11:04.581Z,100151.09
2022-12-22T05:13:32.063Z,100150.91
2022-12-22T05:16:12.470Z,100153.31
2022-12-22T05:18:40.917Z,100143.25
2022-12-22T05:21:11.251Z,100160.69
2022-12-22T05:23:37.929Z,100158.38
2022-12-22T05:26:04.534Z,100152.00
2022-12-22T05:28:32.187Z,100161.63
2022-12-22T05:31:07.717Z,100165.50
2022-12-22T05:33:34.708Z,100154.22
2022-12-22T05:36:01.231Z,100154.59
2022-12-22T05:38:27.878Z,100156.19
2022-12-22T05:41:01.576Z,100160.66
2022-12-22T05:43:30.324Z,100164.91
2022-12-22T05:45:58.587Z,100160.34
2022-12-22T05:48:30.836Z,100182.63
2022-12-22T05:51:00.259Z,100158.94
2022-12-22T05:53:26.655Z,100180.84
2022-12-22T05:55:53.142Z,100178.28
2022-12-22T05:58:19.671Z,100176.56
2022-12-22T06:00:46.195Z,100173.38
2022-12-22T06:03:12.865Z,100178.88
2022-12-22T06:05:39.612Z,100175.13
2022-12-22T06:08:06.096Z,100182.28
2022-12-22T06:10:32.715Z,100185.63
2022-12-22T06:12:59.143Z,100188.00
2022-12-22T06:15:25.682Z,100194.97
2022-12-22T06:17:52.092Z,100188.50
2022-12-22T06:20:18.624Z,100200.19
2022-12-22T06:22:45.044Z,100210.34
2022-12-22T06:25:17.810Z,100215.84
2022-12-22T06:27:44.947Z,100219.06
2022-12-22T06:30:11.715Z,100222.88
2022-12-22T06:32:39.483Z,100221.88
2022-12-22T06:35:07.174Z,100223.19
2022-12-22T06:37:33.620Z,100226.47
2022-12-22T06:40:00.065Z,100229.75
2022-12-22T06:42:44.948Z,100236.53
2022-12-22T06:45:11.504Z,100224.25
2022-12-22T06:47:37.912Z,100233.53
2022-12-22T06:50:04.944Z,100216.22
2022-12-22T06:52:31.451Z,100244.31
2022-12-22T06:54:57.872Z,100257.41
2022-12-22T06:57:24.368Z,100255.31
2022-12-22T06:59:57.125Z,100243.88
2022-12-22T07:02:24.225Z,100239.72
2022-12-22T07:04:50.752Z,100240.09
2022-12-22T07:07:17.185Z,100236.59
2022-12-22T07:09:43.684Z,100252.53
2022-12-22T07:12:10.180Z,100257.22
2022-12-22T07:14:36.816Z,100260.88
2022-12-22T07:17:03.612Z,100248.13
2022-12-22T07:19:30.155Z,100263.97
2022-12-22T07:21:57.287Z,100269.81
2022-12-22T07:24:26.045Z,100259.81
2022-12-22T07:26:52.949Z,100262.09
2022-12-22T07:29:19.349Z,100262.09
2022-12-22T07:31:46.195Z,100266.56
2022-12-22T07:34:13.056Z,100272.06
2022-12-22T07:36:39.589Z,100249.78
2022-12-22T07:39:06.674Z,100284.53
2022-12-22T07:41:52.033Z,100282.38
2022-12-22T07:44:18.439Z,100281.28
2022-12-22T07:46:45.277Z,100286.75
2022-12-22T07:49:30.630Z,100285.28
2022-12-22T07:51:58.474Z,100290.59
2022-12-22T07:54:26.668Z,100305.50
2022-12-22T07:56:54.558Z,100305.50
2022-12-22T07:59:21.177Z,100302.38
2022-12-22T08:01:47.757Z,100305.75
2022-12-22T08:04:15.306Z,100317.19
2022-12-22T08:06:41.859Z,100326.19
2022-12-22T08:09:09.330Z,100318.78
2022-12-22T08:11:35.792Z,100321.94
2022-12-22T08:14:02.505Z,100328.25
2022-12-22T08:16:29.598Z,100334.19
2022-12-22T08:18:56.566Z,100349.28
2022-12-22T08:21:23.305Z,100344.81
2022-12-22T08:23:49.760Z,100349.75
2022-12-22T08:26:20.040Z,100353.25
2022-12-22T08:29:02.782Z,100354.22
2022-12-22T08:31:30.396Z,100361.84
2022-12-22T08:34:02.412Z,100357.72
2022-12-22T08:36:31.641Z,100343.00
2022-12-22T08:38:58.836Z,100359.22
2022-12-22T08:41:43.601Z,100367.00
2022-12-22T08:44:10.128Z,100361.22
2022-12-22T08:46:36.710Z,100359.75
2022-12-22T08:49:03.261Z,100370.72
2022-12-22T08:51:29.680Z,100371.50
2022-12-22T08:54:05.464Z,100373.00
2022-12-22T08:56:32.244Z,100367.53
2022-12-22T08:58:58.665Z,100382.09
2022-12-22T09:01:25.264Z,100374.78
2022-12-22T09:03:53.816Z,100393.66
2022-12-22T09:06:26.997Z,100392.13
2022-12-22T09:09:02.503Z,100395.72
2022-12-22T09:11:29.931Z,100379.13
2022-12-22T09:13:58.378Z,100381.91
2022-12-22T09:16:27.293Z,100379.09
2022-12-22T09:18:55.861Z,100388.16
2022-12-22T09:21:24.413Z,100390.28
2022-12-22T09:23:51.069Z,100387.94
2022-12-22T09:26:20.338Z,100387.56
2022-12-22T09:28:50.497Z,100383.09
2022-12-22T09:31:19.112Z,100396.84
2022-12-22T09:33:45.580Z,100389.06
2022-12-22T09:36:18.638Z,100408.38
2022-12-22T09:38:45.352Z,100408.03
2022-12-22T09:41:26.052Z,100402.72
2022-12-22T09:43:52.592Z,100417.94
2022-12-22T09:46:23.651Z,100427.22
2022-12-22T09:48:50.507Z,100415.56
2022-12-22T09:51:24.394Z,100419.34
2022-12-22T09:54:11.938Z,100418.16
2022-12-22T09:56:38.636Z,100423.94
2022-12-22T09:59:11.226Z,100423.56
2022-12-22T10:01:56.354Z,100435.34
2022-12-22T10:04:36.106Z,100427.69
2022-12-22T10:07:08.749Z,100433.94
2022-12-22T10:09:49.562Z,100437.22
2022-12-22T10:12:20.811Z,100431.75
2022-12-22T10:14:50.010Z,100434.13
2022-12-22T10:17:25.562Z,100431.75
2022-12-22T10:19:56.111Z,100426.66
2022-12-22T10:22:26.450Z,100417.75
2022-12-22T10:24:53.275Z,100426.19
2022-12-22T10:27:28.461Z,100448.66
2022-12-22T10:30:23.087Z,100446.16
2022-12-22T10:33:12.556Z,100447.69
2022-12-22T10:35:50.379Z,100451.41
2022-12-22T10:38:30.821Z,100452.94
2022-12-22T10:41:02.825Z,100455.59
2022-12-22T10:43:40.303Z,100451.06
2022-12-22T10:46:07.279Z,100457.38
2022-12-22T10:48:36.716Z,100441.34
2022-12-22T10:51:08.599Z,100444.69
2022-12-22T10:53:56.077Z,100447.78
2022-12-22T10:56:28.201Z,100443.34
2022-12-22T10:59:01.815Z,100441.63
2022-12-22T11:01:32.282Z,100446.91
2022-12-22T11:04:16.775Z,100437.47
2022-12-22T11:06:44.286Z,100424.53
2022-12-22T11:09:32.389Z,100423.47
2022-12-22T11:12:37.519Z,100420.59
2022-12-22T11:15:30.371Z,100424.88
2022-12-22T11:18:20.985Z,100430.16
2022-12-22T11:21:07.595Z,100444.03
2022-12-22T11:23:42.425Z,100436.13
2022-12-22T11:26:41.135Z,100435.09
2022-12-22T11:29:40.961Z,100420.84
2022-12-22T11:32:38.300Z,100423.19
2022-12-22T11:35:16.863Z,100416.41
2022-12-22T11:37:54.533Z,100429.47
2022-12-22T11:40:27.008Z,100446.44
2022-12-22T11:43:09.237Z,100456.69
2022-12-22T11:45:52.157Z,100456.34
2022-12-22T11:48:33.785Z,100462.47
2022-12-22T11:51:12.627Z,100462.97
2022-12-22T11:54:11.748Z,100458.41
2022-12-22T11:56:42.622Z,100455.84
2022-12-22T11:59:43.264Z,100467.34
2022-12-22T12:02:30.265Z,100466.34
2022-12-22T12:05:19.374Z,100457.19
2022-12-22T12:07:51.083Z,100459.81
2022-12-22T12:10:26.892Z,100452.75
2022-12-22T12:12:59.348Z,100467.28
2022-12-22T12:15:32.015Z,100452.41
2022-12-22T12:18:04.491Z,100451.97
2022-12-22T12:20:43.034Z,100451.78
2022-12-22T12:23:48.644Z,100466.50
2022-12-22T12:26:44.282Z,100445.56
2022-12-22T12:29:16.750Z,100452.47
2022-12-22T12:31:52.750Z,100457.59
2022-12-22T12:34:21.498Z,100448.50
2022-12-22T12:37:12.361Z,100456.94
2022-12-22T12:39:50.977Z,100449.16
2022-12-22T12:42:29.569Z,100446.44
2022-12-22T12:44:56.294Z,100441.66
2022-12-22T12:47:49.253Z,100445.06
2022-12-22T12:50:35.353Z,100437.41
2022-12-22T12:53:08.262Z,100438.91
2022-12-22T12:55:40.604Z,100442.41
2022-12-22T12:58:12.528Z,100449.53
2022-12-22T13:00:46.663Z,100452.00
2022-12-22T13:03:52.920Z,100447.06
2022-12-22T13:06:49.169Z,100442.47
2022-12-22T13:09:49.323Z,100437.59
2022-12-22T13:12:37.870Z,100433.97
2022-12-22T13:15:04.492Z,100416.69
2022-12-22T13:17:49.213Z,100415.69
2022-12-22T13:20:24.443Z,100413.78
2022-12-22T13:22:56.922Z,100410.56
2022-12-22T13:25:27.132Z,100403.03
2022-12-22T13:27:56.641Z,100391.38
2022-12-22T13:30:23.369Z,100397.31
2022-12-22T13:32:50.444Z,100396.53
2022-12-22T13:35:32.463Z,100391.53
2022-12-22T13:38:00.190Z,100382.75
2022-12-22T13:40:32.661Z,100386.53
2022-12-22T13:43:09.614Z,100381.81
2022-12-22T13:45:39.976Z,100372.19
2022-12-22T13:48:12.610Z,100350.38
2022-12-22T13:50:45.432Z,100371.81
2022-12-22T13:53:50.098Z,100368.31
2022-12-22T13:56:16.062Z,100364.00
2022-12-22T13:58:45.401Z,100359.91
2022-12-22T14:01:11.970Z,100360.53
2022-12-22T14:03:59.395Z,100349.63
2022-12-22T14:06:33.208Z,100338.97
2022-12-22T14:09:22.239Z,100344.75
2022-12-22T14:12:06.401Z,100347.22
2022-12-22T14:14:41.104Z,100336.75
2022-12-22T14:17:28.699Z,100333.91
2022-12-22T14:20:00.565Z,100314.78
2022-12-22T14:22:26.949Z,100323.47
2022-12-22T14:25:01.461Z,100318.53
2022-12-22T14:27:37.444Z,100319.38
2022-12-22T14:30:07.408Z,100316.06
2022-12-22T14:32:54.465Z,100321.78
2022-12-22T14:35:21.702Z,100322.94
2022-12-22T14:37:52.457Z,100330.28
2022-12-22T14:40:30.357Z,100333.16
2022-12-22T14:42:59.247Z,100328.84
2022-12-22T14:45:26.275Z,100322.88
2022-12-22T14:47:55.445Z,100325.56
2022-12-22T14:50:25.074Z,100317.56
2022-12-22T14:52:57.060Z,100306.41
2022-12-22T14:55:28.453Z,100311.81
2022-12-22T14:57:56.849Z,100306.66
2022-12-22T15:00:23.362Z,100310.16
2022-12-22T15:02:54.481Z,100303.19
2022-12-22T15:05:37.505Z,100300.53
2022-12-22T15:08:08.380Z,100298.06
2022-12-22T15:10:39.849Z,100288.44
2022-12-22T15:13:12.401Z,100291.94
2022-12-22T15:15:39.000Z,100286.78
2022-12-22T15:18:05.746Z,100293.13
2022-12-22T15:20:39.056Z,100293.75
2022-12-22T15:23:16.837Z,100275.69
2022-12-22T15:25:45.988Z,100279.81
2022-12-22T15:28:13.282Z,100263.41
2022-12-22T15:30:40.940Z,100274.50
2022-12-22T15:33:14.266Z,100275.53
2022-12-22T15:35:41.735Z,100275.53
2022-12-22T15:38:38.766Z,100278.34
2022-12-22T15:41:06.340Z,100270.94
2022-12-22T15:46:22.091Z,100261.06
2022-12-22T15:48:48.769Z,100251.44
2022-12-22T15:51:26.565Z,100243.19
2022-12-22T15:53:55.082Z,100254.47
2022-12-22T15:56:24.988Z,100242.41
2022-12-22T15:58:52.071Z,100240.53
2022-12-22T16:01:18.617Z,100237.69
2022-12-22T16:03:45.195Z,100235.03
2022-12-22T16:06:16.810Z,100232.38
2022-12-22T16:08:49.496Z,100229.91
2022-12-22T16:11:16.303Z,100220.50
2022-12-22T16:13:42.872Z,100236.44
2022-12-22T16:16:09.422Z,100213.69
2022-12-22T16:18:35.907Z,100213.69
2022-12-22T16:21:07.929Z,100214.53
2022-12-22T16:23:36.767Z,100206.75
2022-12-22T16:26:04.897Z,100202.25
2022-12-22T16:28:33.153Z,100197.75
2022-12-22T16:31:00.802Z,100202.25
2022-12-22T16:33:27.418Z,100197.13
2022-12-22T16:35:53.844Z,100187.50
2022-12-22T16:38:20.407Z,100183.81
2022-12-22T16:40:50.454Z,100172.53
2022-12-22T16:46:16.674Z,100182.44
2022-12-22T16:48:46.724Z,100183.47
2022-12-22T16:51:25.243Z,100174.47
2022-12-22T16:53:51.715Z,100166.69
2022-12-22T16:56:21.707Z,100167.78
2022-12-22T16:58:48.895Z,100161.44
2022-12-22T17:01:26.009Z,100165.09
2022-12-22T17:03:53.082Z,100155.28
2022-12-22T17:06:19.613Z,100150.78
2022-12-22T17:08:46.733Z,100158.97
2022-12-22T17:11:20.935Z,100149.16
2022-12-22T17:13:48.150Z,100145.47
2022-12-22T17:16:20.984Z,100154.91
2022-12-22T17:18:47.773Z,100145.09
2022-12-22T17:21:17.198Z,100141.00
2022-12-22T17:23:48.431Z,100136.66
2022-12-22T17:26:19.552Z,100135.22
2022-12-22T17:28:47.170Z,100115.09
2022-12-22T17:31:21.111Z,100120.91
2022-12-22T17:33:48.240Z,100124.00
2022-12-22T17:36:37.230Z,100117.69
2022-12-22T17:39:04.690Z,100112.19
2022-12-22T17:41:31.545Z,100112.81
2022-12-22T17:43:57.941Z,100119.78
2022-12-22T17:46:24.469Z,100110.31
2022-12-22T17:48:51.211Z,100118.75
2022-12-22T17:51:27.191Z,100118.38
2022-12-22T17:53:56.556Z,100113.88
2022-12-22T17:56:27.118Z,100117.56
2022-12-22T17:58:53.745Z,100113.63
2022-12-22T18:01:27.409Z,100114.06
2022-12-22T18:03:54.624Z,100111.84
2022-12-22T18:06:25.236Z,100107.34
2022-12-22T18:08:53.631Z,100102.22
2022-12-22T18:11:20.936Z,100101.19
2022-12-22T18:13:47.791Z,100095.66
2022-12-22T18:16:17.530Z,100085.19
2022-12-22T18:18:44.446Z,100097.34
2022-12-22T18:21:16.327Z,100094.69
2022-12-22T18:23:49.847Z,100095.06
2022-12-22T18:26:28.982Z,100093.41
2022-12-22T18:28:56.437Z,100095.25
2022-12-22T18:31:23.983Z,100096.53
2022-12-22T18:33:52.027Z,100089.69
2022-12-22T18:36:30.643Z,100093.56
2022-12-22T18:38:59.188Z,100092.97
2022-12-22T18:41:27.190Z,100093.19
2022-12-22T18:43:53.878Z,100089.28
2022-12-22T18:46:20.483Z,100088.09
2022-12-22T18:48:48.637Z,100084.56
2022-12-22T18:51:20.793Z,100087.03
2022-12-22T18:53:48.464Z,100078.19
2022-12-22T18:56:14.923Z,100080.47
2022-12-22T18:58:44.206Z,100075.41
2022-12-22T19:01:23.170Z,100083.84
2022-12-22T19:03:53.912Z,100082.00
2022-12-22T19:06:22.115Z,100084.09
2022-12-22T19:08:49.347Z,100072.59
2022-12-22T19:11:18.479Z,100078.38
2022-12-22T19:13:51.938Z,100070.00
2022-12-22T19:16:23.102Z,100079.19
2022-12-22T19:18:49.885Z,100076.50
2022-12-22T19:21:18.296Z,100074.09
2022-12-22T19:23:45.270Z,100080.22
2022-12-22T19:26:22.936Z,100077.16
2022-12-22T19:28:52.327Z,100077.75
2022-12-22T19:31:24.726Z,100077.75
2022-12-22T19:33:52.339Z,100074.72
2022-12-22T19:36:22.137Z,100084.63
2022-12-22T19:38:51.080Z,100076.22
2022-12-22T19:41:31.967Z,100069.66
2022-12-22T19:43:58.677Z,100072.75
2022-12-22T19:46:28.811Z,100075.06
2022-12-22T19:48:56.966Z,100083.69
2022-12-22T19:51:23.408Z,100078.34
2022-12-22T19:53:49.894Z,100078.34
2022-12-22T19:56:26.918Z,100078.72
2022-12-22T19:58:54.748Z,100080.38
2022-12-22T20:01:21.284Z,100077.53
2022-12-22T20:03:47.954Z,100074.88
2022-12-22T20:06:14.838Z,100089.38
2022-12-22T20:08:41.271Z,100090.84
2022-12-22T20:11:14.478Z,100083.28
2022-12-22T20:13:42.038Z,100076.28
2022-12-22T20:16:12.810Z,100081.03
2022-12-22T20:18:39.322Z,100086.94
2022-12-22T20:21:10.804Z,100085.19
2022-12-22T20:23:38.057Z,100068.19
2022-12-22T20:26:13.859Z,100067.31
2022-12-22T20:28:40.663Z,100057.59
2022-12-22T20:31:10.724Z,100070.19
2022-12-22T20:33:37.352Z,100067.28
2022-12-22T20:36:11.939Z,100069.50
2022-12-22T20:38:40.422Z,100074.63
2022-12-22T20:41:09.253Z,100079.53
2022-12-22T20:43:36.740Z,100080.16
2022-12-22T20:46:35.331Z,100080.78
2022-12-22T20:49:03.125Z,100082.84
2022-12-22T20:51:32.715Z,100091.84
2022-12-22T20:54:00.028Z,100094.25
2022-12-22T20:56:29.866Z,100089.78
2022-12-22T20:58:58.389Z,100086.91
2022-12-22T21:01:25.153Z,100092.19
2022-12-22T21:03:52.196Z,100090.84
2022-12-22T21:06:24.755Z,100081.59
2022-12-22T21:08:52.804Z,100080.34
2022-12-22T21:11:19.301Z,100080.97
2022-12-22T21:13:45.838Z,100071.56
2022-12-22T21:16:16.275Z,100081.63
2022-12-22T21:18:43.195Z,100083.84
2022-12-22T21:21:11.481Z,100082.41
2022-12-22T21:23:38.431Z,100085.31
2022-12-22T21:26:10.734Z,100082.84
2022-12-22T21:28:38.702Z,100089.41
2022-12-22T21:31:05.698Z,100088.16
2022-12-22T21:33:32.173Z,100097.34
2022-12-22T21:36:02.058Z,100097.59
2022-12-22T21:38:31.323Z,100099.00
2022-12-22T21:40:58.665Z,100105.56
2022-12-22T21:43:25.398Z,100100.88
2022-12-22T21:45:52.212Z,100096.78
2022-12-22T21:48:20.567Z,100105.56
2022-12-22T21:50:50.164Z,100106.16
2022-12-22T21:53:22.293Z,100109.06
2022-12-22T21:55:49.348Z,100116.22
2022-12-22T21:58:15.997Z,100112.94
2022-12-22T22:00:47.132Z,100118.63
2022-12-22T22:03:15.359Z,100124.59
2022-12-22T22:05:43.694Z,100122.53
2022-12-22T22:08:12.418Z,100128.09
2022-12-22T22:10:41.697Z,100133.41
2022-12-22T22:13:10.801Z,100135.44
2022-12-22T22:15:37.282Z,100138.09
2022-12-22T22:18:07.286Z,100130.94
2022-12-22T22:20:34.569Z,100130.50
2022-12-22T22:23:01.188Z,100137.03
2022-12-22T22:25:27.897Z,100144.00
2022-12-22T22:27:59.370Z,100139.31
2022-12-22T22:30:27.026Z,100135.25
2022-12-22T22:32:54.967Z,100138.56
2022-12-22T22:35:22.085Z,100135.91
2022-12-22T22:37:52.253Z,100131.41
2022-12-22T22:40:21.538Z,100125.00
2022-12-22T22:42:48.111Z,100138.72
2022-12-22T22:45:17.023Z,100140.13
2022-12-22T22:47:43.421Z,100137.84
2022-12-22T22:50:10.150Z,100139.09
2022-12-22T22:52:37.081Z,100138.44
2022-12-22T22:55:03.902Z,100144.56
2022-12-22T22:57:30.411Z,100138.66
2022-12-22T22:59:56.841Z,100133.31
2022-12-22T23:02:23.482Z,100145.00
2022-12-22T23:04:49.984Z,100144.56
2022-12-22T23:07:16.507Z,100139.69
2022-12-22T23:09:42.980Z,100147.66
2022-12-22T23:12:09.358Z,100147.06
2022-12-22T23:14:35.792Z,100152.19
2022-12-22T23:17:02.337Z,100144.22
2022-12-22T23:19:28.769Z,100147.91
2022-12-22T23:21:55.523Z,100138.88
2022-12-22T23:24:21.942Z,100141.91
2022-12-22T23:26:48.808Z,100153.22
2022-12-22T23:29:15.469Z,100149.56
2022-12-22T23:31:41.955Z,100138.94
2022-12-22T23:34:10.878Z,100154.91
2022-12-22T23:36:37.644Z,100158.94
2022-12-22T23:39:04.182Z,100165.09
2022-12-22T23:41:31.786Z,100174.50
2022-12-22T23:43:58.268Z,100179.03
2022-12-22T23:46:24.832Z,100179.84
2022-12-22T23:48:53.038Z,100181.69
2022-12-22T23:51:23.949Z,100184.16
2022-12-22T23:53:50.618Z,100182.13
2022-12-22T23:56:17.026Z,100182.50
2022-12-22T23:58:43.625Z,100169.75
